Time;durP1;ratioP1;P1;durP2;ratioP2;P2;SDS_P1;SDS_P2;PMS_P1;PMS_P2;Temp;Humidity;BMP_temperature;BMP_pressure;BME280_temperature;BME280_humidity;BME280_pressure;Samples;Min_cycle;Max_cycle;Signal;HPM_P1;HPM_P2
2023/03/06 00:02:11;;;;;;;35.45;24.73;;;;;;;6.56;62.47;99488.75;5029114;28;20483;-60
2023/03/06 00:04:38;;;;;;;36.95;25.65;;;;;;;6.61;62.97;99485.03;5027298;28;20068;-60
2023/03/06 00:07:05;;;;;;;36.35;25.45;;;;;;;6.63;62.64;99489.13;5027663;28;20056;-60
2023/03/06 00:09:33;;;;;;;33.42;23.90;;;;;;;6.59;62.17;99487.31;5024889;28;20056;-59
2023/03/06 00:12:00;;;;;;;33.35;23.15;;;;;;;6.51;63.06;99480.59;5028832;28;20058;-59
2023/03/06 00:14:27;;;;;;;30.58;21.67;;;;;;;6.53;62.84;99483.88;5033281;28;20062;-59
2023/03/06 00:16:56;;;;;;;27.52;20.63;;;;;;;6.52;63.06;99475.88;5015308;28;20393;-59
2023/03/06 00:19:24;;;;;;;25.63;19.85;;;;;;;6.46;62.67;99472.38;5023861;28;20069;-60
2023/03/06 00:21:51;;;;;;;24.35;19.55;;;;;;;6.48;62.87;99473.72;5029030;28;20045;-59
2023/03/06 00:24:18;;;;;;;26.00;19.35;;;;;;;6.38;62.62;99468.41;5026192;28;20503;-59
2023/03/06 00:26:46;;;;;;;24.65;18.75;;;;;;;6.21;62.77;99476.53;5027376;28;20054;-59
2023/03/06 00:29:13;;;;;;;24.70;18.63;;;;;;;6.02;63.38;99469.19;5027933;28;20060;-59
2023/03/06 00:31:43;;;;;;;24.88;19.05;;;;;;;5.94;63.33;99467.13;5028062;28;20064;-59
2023/03/06 00:34:12;;;;;;;22.73;18.23;;;;;;;5.96;63.55;99469.59;5021518;28;20049;-59
2023/03/06 00:36:39;;;;;;;22.67;16.48;;;;;;;5.97;63.70;99449.97;5025576;28;20790;-59
2023/03/06 00:39:06;;;;;;;22.50;17.30;;;;;;;5.89;63.83;99453.41;5024704;28;20053;-60
2023/03/06 00:41:33;;;;;;;22.17;17.05;;;;;;;5.82;63.69;99447.50;5025584;28;20053;-59
2023/03/06 00:44:01;;;;;;;23.48;17.70;;;;;;;5.83;64.52;99449.94;5028262;28;20052;-59
2023/03/06 00:46:28;;;;;;;23.38;18.17;;;;;;;5.80;64.92;99446.97;5027333;28;20049;-59
2023/03/06 00:49:01;;;;;;;25.30;18.88;;;;;;;5.87;63.89;99439.09;5025922;28;20428;-59
2023/03/06 00:51:30;;;;;;;25.88;18.33;;;;;;;5.75;64.26;99436.84;5027460;28;20053;-59
2023/03/06 00:53:57;;;;;;;26.00;19.50;;;;;;;5.73;64.45;99436.31;5025169;28;20058;-59
2023/03/06 00:56:25;;;;;;;25.08;17.13;;;;;;;5.72;64.24;99426.41;5030226;28;20519;-59
2023/03/06 00:58:54;;;;;;;25.85;19.63;;;;;;;5.78;64.84;99427.13;5030999;28;20041;-59
2023/03/06 01:01:21;;;;;;;;;;;;;;;5.62;65.31;99432.94;5030874;28;20045;-60
2023/03/06 01:03:49;;;;;;;24.90;17.92;;;;;;;5.59;65.42;99428.06;5031088;28;20394;-59
2023/03/06 01:06:16;;;;;;;24.52;17.95;;;;;;;5.64;65.29;99422.41;5022354;28;20061;-59
2023/03/06 01:08:44;;;;;;;23.15;17.23;;;;;;;5.61;65.13;99423.03;5030265;28;20052;-59
2023/03/06 01:11:12;;;;;;;27.40;18.50;;;;;;;5.60;65.47;99421.38;5030047;28;20060;-59
2023/03/06 01:13:39;;;;;;;26.90;18.23;;;;;;;5.52;65.79;99413.00;5020828;28;20061;-59
2023/03/06 01:16:08;;;;;;;22.58;17.48;;;;;;;5.64;64.93;99414.13;5029267;28;20049;-60
2023/03/06 01:18:36;;;;;;;23.92;17.05;;;;;;;5.66;65.48;99411.88;5030662;28;20056;-60
2023/03/06 01:21:04;;;;;;;23.38;16.02;;;;;;;5.72;64.88;99404.31;5031734;28;20046;-59
2023/03/06 01:23:31;;;;;;;21.50;15.38;;;;;;;5.73;64.89;99411.44;5029403;27;20391;-60
2023/03/06 01:26:00;;;;;;;24.58;17.02;;;;;;;5.59;65.36;99407.91;5031034;28;20494;-59
2023/03/06 01:28:28;;;;;;;22.73;15.97;;;;;;;5.63;65.58;99400.66;5030529;28;20056;-60
2023/03/06 01:30:56;;;;;;;22.60;16.33;;;;;;;5.70;65.44;99399.09;5031148;28;20480;-59
2023/03/06 01:33:23;;;;;;;19.08;14.45;;;;;;;5.78;65.36;99385.69;5029689;28;20053;-59
2023/03/06 01:35:50;;;;;;;23.90;17.17;;;;;;;5.81;65.12;99382.28;5029904;28;20057;-59
2023/03/06 01:38:17;;;;;;;20.17;15.02;;;;;;;5.84;65.31;99384.44;5030852;28;20378;-60
2023/03/06 01:40:45;;;;;;;19.63;14.55;;;;;;;5.86;64.97;99382.19;5029776;27;20045;-59
2023/03/06 01:43:26;;;;;;;21.20;15.85;;;;;;;5.94;65.21;99381.44;5031451;28;20056;-60
2023/03/06 01:46:24;;;;;;;22.65;16.25;;;;;;;6.01;65.02;99386.59;5030256;28;20045;-59
2023/03/06 01:48:57;;;;;;;21.55;16.25;;;;;;;5.97;65.16;99383.63;5031635;28;20060;-59
2023/03/06 01:51:27;;;;;;;20.75;15.80;;;;;;;6.06;64.97;99373.44;5028737;28;20050;-59
2023/03/06 01:53:55;;;;;;;20.10;16.17;;;;;;;6.07;64.55;99375.09;5028587;28;20080;-59
2023/03/06 01:56:24;;;;;;;20.23;14.93;;;;;;;6.08;64.61;99371.19;5031386;28;20506;-59
2023/03/06 01:58:53;;;;;;;22.10;14.75;;;;;;;6.13;64.52;99374.97;5031127;28;20058;-59
2023/03/06 02:01:21;;;;;;;22.67;16.80;;;;;;;6.00;64.56;99371.94;5029533;28;20046;-59
2023/03/06 02:03:50;;;;;;;21.40;16.15;;;;;;;6.05;64.30;99374.59;5039305;27;20060;-59
2023/03/06 02:06:20;;;;;;;19.45;15.10;;;;;;;5.87;64.70;99367.22;5056917;27;20061;-61
2023/03/06 02:08:48;;;;;;;21.15;15.95;;;;;;;5.96;64.39;99370.09;5029267;28;20056;-59
2023/03/06 02:11:18;;;;;;;20.25;15.15;;;;;;;5.96;64.29;99370.91;5030263;28;20436;-59
2023/03/06 02:13:47;;;;;;;18.63;15.25;;;;;;;5.97;64.53;99361.50;5028997;28;20041;-59
2023/03/06 02:16:20;;;;;;;20.58;16.70;;;;;;;5.98;64.61;99354.84;5027740;28;20054;-60
2023/03/06 02:18:49;;;;;;;19.38;15.52;;;;;;;5.96;64.40;99354.34;5029104;27;20046;-59
2023/03/06 02:21:21;;;;;;;18.80;14.52;;;;;;;6.01;64.53;99354.22;5029885;28;20045;-59
2023/03/06 02:23:59;;;;;;;18.48;14.25;;;;;;;6.03;64.55;99354.75;5025047;27;20072;-59
2023/03/06 02:26:29;;;;;;;16.25;12.88;;;;;;;6.02;64.54;99355.03;5026280;28;20050;-59
2023/03/06 02:29:00;;;;;;;15.95;11.88;;;;;;;5.94;64.39;99353.78;5029877;28;20049;-59
2023/03/06 02:31:30;;;;;;;13.63;10.70;;;;;;;6.01;64.07;99345.94;5031074;28;20265;-60
2023/03/06 02:34:07;;;;;;;11.30;10.07;;;;;;;5.87;64.09;99345.94;5030938;28;20064;-60
2023/03/06 02:36:40;;;;;;;12.35;9.50;;;;;;;5.86;64.33;99338.78;5031376;28;20079;-59
2023/03/06 02:39:08;;;;;;;11.25;9.32;;;;;;;5.83;64.17;99333.88;5028848;28;20391;-59
2023/03/06 02:41:36;;;;;;;11.60;9.35;;;;;;;5.70;64.23;99330.00;5030206;28;20060;-60
2023/03/06 02:44:03;;;;;;;10.82;8.80;;;;;;;5.69;64.38;99330.31;5028754;28;20057;-60
2023/03/06 02:46:31;;;;;;;12.48;10.07;;;;;;;5.59;64.90;99328.59;5029844;28;20475;-59
2023/03/06 02:48:58;;;;;;;13.95;11.00;;;;;;;5.63;64.49;99326.88;5030314;28;20475;-60
2023/03/06 02:51:26;;;;;;;13.50;10.02;;;;;;;5.72;64.84;99323.38;5027491;28;20053;-60
2023/03/06 02:53:53;;;;;;;11.63;9.38;;;;;;;5.75;64.32;99326.31;5028512;28;20090;-59
2023/03/06 02:56:21;;;;;;;12.75;10.45;;;;;;;5.79;64.41;99318.22;5028705;28;20056;-59
2023/03/06 02:58:50;;;;;;;14.65;10.90;;;;;;;5.81;64.38;99318.72;5030589;28;20492;-60
2023/03/06 03:01:18;;;;;;;12.50;10.20;;;;;;;5.80;64.00;99312.41;5030477;28;20060;-60
2023/03/06 03:03:45;;;;;;;12.43;10.20;;;;;;;5.77;63.50;99324.06;5030553;28;20061;-59
2023/03/06 03:06:13;;;;;;;13.90;10.50;;;;;;;5.70;64.03;99309.88;5029833;28;20059;-59
2023/03/06 03:08:40;;;;;;;14.50;10.63;;;;;;;5.70;64.12;99310.69;5028824;28;20053;-59
2023/03/06 03:11:08;;;;;;;14.20;11.27;;;;;;;5.63;64.62;99302.00;5029722;28;20466;-59
2023/03/06 03:13:36;;;;;;;13.60;10.98;;;;;;;5.65;64.35;99308.03;5029908;27;20053;-58
2023/03/06 03:16:07;;;;;;;14.40;11.65;;;;;;;5.69;64.35;99299.94;5030108;28;20057;-58
2023/03/06 03:18:35;;;;;;;14.68;11.25;;;;;;;5.58;64.41;99304.06;5029228;28;20052;-59
2023/03/06 03:21:02;;;;;;;13.38;10.95;;;;;;;5.57;64.53;99303.25;5016636;28;20054;-59
2023/03/06 03:23:29;;;;;;;14.75;11.35;;;;;;;5.66;64.74;99304.13;5018877;28;20061;-59
2023/03/06 03:26:05;;;;;;;15.85;11.75;;;;;;;5.65;64.54;99299.75;5029371;28;20053;-59
2023/03/06 03:28:34;;;;;;;17.23;12.00;;;;;;;5.60;64.40;99299.84;5030928;28;20053;-59
2023/03/06 03:31:03;;;;;;;14.63;11.43;;;;;;;5.61;64.45;99293.22;5030296;28;20057;-59
2023/03/06 03:33:32;;;;;;;15.05;11.48;;;;;;;5.67;64.31;99286.44;5029580;28;20410;-59
2023/03/06 03:36:01;;;;;;;16.85;12.55;;;;;;;5.66;64.07;99290.31;5030250;28;20053;-59
2023/03/06 03:38:29;;;;;;;17.67;12.77;;;;;;;5.72;63.93;99288.25;5019927;28;20052;-59
2023/03/06 03:40:56;;;;;;;14.07;11.02;;;;;;;5.72;64.09;99284.69;5029462;28;20052;-59
2023/03/06 03:43:23;;;;;;;16.95;12.32;;;;;;;5.66;64.86;99284.78;5029618;28;20053;-59
2023/03/06 03:45:52;;;;;;;15.60;12.20;;;;;;;5.64;64.57;99278.75;5029566;28;20057;-59
2023/03/06 03:48:20;;;;;;;17.90;12.80;;;;;;;5.62;64.54;99283.78;5029732;28;20054;-59
2023/03/06 03:50:49;;;;;;;18.65;13.00;;;;;;;5.53;64.60;99280.13;5029590;28;20511;-59
2023/03/06 03:53:16;;;;;;;18.45;13.25;;;;;;;5.54;64.45;99280.94;5028922;28;20057;-59
2023/03/06 03:55:43;;;;;;;19.23;13.23;;;;;;;5.53;65.13;99273.78;5028361;28;20518;-60
2023/03/06 03:58:10;;;;;;;19.85;14.27;;;;;;;5.54;65.21;99276.22;5029520;28;20049;-59
2023/03/06 04:00:38;;;;;;;20.02;14.23;;;;;;;5.58;64.65;99274.47;5029626;28;20415;-60
2023/03/06 04:03:05;;;;;;;19.02;13.57;;;;;;;5.52;64.91;99272.16;5029451;28;20052;-59
2023/03/06 04:05:32;;;;;;;20.55;15.18;;;;;;;5.50;65.07;99275.22;5029028;28;20052;-59
2023/03/06 04:08:02;;;;;;;21.92;15.52;;;;;;;5.55;64.76;99271.53;5028375;28;20049;-59
2023/03/06 04:10:31;;;;;;;23.20;14.68;;;;;;;5.44;65.15;99270.97;5028144;28;20048;-59
2023/03/06 04:12:58;;;;;;;20.83;15.02;;;;;;;5.49;65.34;99270.84;5029456;28;20411;-60
2023/03/06 04:15:28;;;;;;;20.83;15.60;;;;;;;5.54;65.34;99270.69;5029271;28;20480;-59
2023/03/06 04:17:56;;;;;;;22.88;15.98;;;;;;;5.51;65.59;99260.28;5047315;28;20049;-60
2023/03/06 04:20:23;;;;;;;27.40;18.80;;;;;;;5.39;65.26;99262.75;5044719;28;20492;-60
2023/03/06 04:22:50;;;;;;;28.35;18.90;;;;;;;5.41;65.19;99255.00;5028441;28;20060;-59
2023/03/06 04:25:19;;;;;;;26.55;17.45;;;;;;;5.45;65.57;99256.00;5025761;28;20056;-59
2023/03/06 04:27:47;;;;;;;25.48;17.95;;;;;;;5.50;65.41;99258.63;5029012;28;20054;-59
2023/03/06 04:30:15;;;;;;;26.80;18.27;;;;;;;5.49;64.90;99257.03;5030848;28;20076;-59
2023/03/06 04:32:42;;;;;;;25.77;18.05;;;;;;;5.45;64.91;99250.47;5032125;28;20057;-60
2023/03/06 04:35:10;;;;;;;25.95;18.35;;;;;;;5.51;65.02;99251.19;5032441;28;20060;-59
2023/03/06 04:37:37;;;;;;;26.60;19.45;;;;;;;5.55;64.69;99243.91;5031719;28;20395;-59
2023/03/06 04:40:05;;;;;;;26.10;18.70;;;;;;;5.52;64.41;99237.06;5033263;28;20049;-59
2023/03/06 04:42:33;;;;;;;27.40;19.85;;;;;;;5.55;64.82;99239.22;5031827;28;20061;-59
2023/03/06 04:45:03;;;;;;;26.13;18.48;;;;;;;5.56;64.70;99229.78;5032277;28;20056;-59
2023/03/06 04:47:30;;;;;;;;;;;;;;;5.51;64.81;99223.56;5032227;28;20060;-59
2023/03/06 04:49:58;;;;;;;26.33;18.67;;;;;;;5.59;64.44;99228.38;5032035;28;19923;-60
2023/03/06 04:52:25;;;;;;;27.27;19.52;;;;;;;5.58;64.34;99224.75;5031397;28;20057;-59
2023/03/06 04:54:52;;;;;;;24.42;18.15;;;;;;;5.50;63.71;99211.69;5032391;28;20396;-59
2023/03/06 04:57:19;;;;;;;24.88;18.67;;;;;;;5.49;64.51;99215.59;5031335;28;20053;-59
2023/03/06 04:59:49;;;;;;;21.63;16.55;;;;;;;5.48;64.42;99213.94;5031904;28;20053;-59
2023/03/06 05:02:16;;;;;;;20.60;15.57;;;;;;;5.36;64.18;99219.22;5025622;28;20053;-59
2023/03/06 05:04:44;;;;;;;22.33;16.40;;;;;;;5.40;64.27;99214.72;5012280;28;20054;-59
2023/03/06 05:07:11;;;;;;;25.55;17.25;;;;;;;5.44;64.63;99221.25;5027853;27;20057;-59
2023/03/06 05:09:38;;;;;;;20.17;15.25;;;;;;;5.45;63.79;99211.81;5032794;28;20093;-59
2023/03/06 05:12:09;;;;;;;19.88;14.35;;;;;;;5.45;63.47;99211.81;5032198;28;20057;-59
2023/03/06 05:14:36;;;;;;;20.17;14.38;;;;;;;5.52;63.72;99216.91;5031550;28;20057;-59
2023/03/06 05:17:05;;;;;;;20.67;14.82;;;;;;;5.55;63.38;99216.31;5032021;28;20076;-59
2023/03/06 05:19:32;;;;;;;18.70;14.15;;;;;;;5.62;63.77;99214.72;5031481;28;20056;-59
2023/03/06 05:22:00;;;;;;;19.95;14.98;;;;;;;5.62;63.42;99217.47;5014959;28;20514;-58
2023/03/06 05:24:27;;;;;;;16.85;12.65;;;;;;;5.67;63.50;99213.81;5030313;27;20053;-59
2023/03/06 05:26:54;;;;;;;17.45;13.02;;;;;;;5.69;62.57;99211.53;5031547;28;20049;-59
2023/03/06 05:29:22;;;;;;;17.85;12.43;;;;;;;5.70;62.15;99211.22;5029940;28;20049;-60
2023/03/06 05:31:49;;;;;;;17.40;12.40;;;;;;;5.72;61.50;99215.63;5031481;28;20057;-59
2023/03/06 05:34:18;;;;;;;18.05;13.25;;;;;;;5.63;61.52;99219.13;5031726;28;20057;-58
2023/03/06 05:36:46;;;;;;;17.92;13.57;;;;;;;5.54;61.93;99211.91;5031519;28;20054;-59
2023/03/06 05:39:13;;;;;;;18.85;12.93;;;;;;;5.59;61.91;99211.78;5029667;28;20057;-59
2023/03/06 05:41:40;;;;;;;19.20;14.48;;;;;;;5.61;62.37;99215.88;5030546;28;20049;-59
2023/03/06 05:44:10;;;;;;;18.10;13.75;;;;;;;5.61;61.80;99204.81;5031548;28;20049;-59
2023/03/06 05:46:38;;;;;;;18.92;13.88;;;;;;;5.61;62.19;99210.34;5032312;28;20057;-59
2023/03/06 05:49:05;;;;;;;19.58;14.90;;;;;;;5.65;61.43;99211.34;5030906;28;20056;-59
2023/03/06 05:51:34;;;;;;;18.35;14.35;;;;;;;5.67;61.36;99211.84;5031102;28;20054;-59
2023/03/06 05:54:01;;;;;;;17.33;13.45;;;;;;;5.69;61.47;99209.59;5031296;28;20052;-59
2023/03/06 05:56:28;;;;;;;17.20;12.15;;;;;;;5.67;61.18;99211.84;5030762;27;20069;-59
2023/03/06 05:58:55;;;;;;;18.83;14.23;;;;;;;5.71;61.23;99217.56;5031102;28;20053;-59
2023/03/06 06:01:24;;;;;;;16.63;12.52;;;;;;;5.65;60.55;99210.53;5031302;28;20053;-59
2023/03/06 06:03:51;;;;;;;18.02;13.95;;;;;;;5.67;61.09;99220.16;5030756;28;20052;-59
2023/03/06 06:06:18;;;;;;;18.77;13.43;;;;;;;5.64;61.35;99209.69;5032070;28;20049;-59
2023/03/06 06:08:47;;;;;;;19.30;14.52;;;;;;;5.69;61.32;99215.13;5030368;28;20050;-59
2023/03/06 06:11:14;;;;;;;18.73;13.13;;;;;;;5.60;61.19;99211.47;5029861;28;20056;-59
2023/03/06 06:13:42;;;;;;;20.00;13.65;;;;;;;5.50;61.67;99208.94;5029776;28;20403;-59
2023/03/06 06:16:11;;;;;;;21.33;15.00;;;;;;;5.42;61.76;99204.19;5030494;28;20064;-58
2023/03/06 06:18:39;;;;;;;22.48;15.13;;;;;;;5.37;61.40;99201.50;5031195;28;20053;-59
2023/03/06 06:21:06;;;;;;;21.65;16.40;;;;;;;5.32;61.95;99212.69;5030832;28;20480;-59
2023/03/06 06:23:34;;;;;;;21.50;14.93;;;;;;;5.32;61.95;99212.69;5029939;28;20064;-59
2023/03/06 06:26:05;;;;;;;22.27;16.75;;;;;;;5.26;61.85;99215.53;5027392;28;20057;-58
2023/03/06 06:28:35;;;;;;;24.00;17.73;;;;;;;5.19;62.58;99206.06;5022546;28;20057;-58
2023/03/06 06:31:09;;;;;;;23.88;17.77;;;;;;;5.20;62.42;99214.03;5029815;28;20388;-58
2023/03/06 06:33:36;;;;;;;22.90;16.15;;;;;;;5.16;62.76;99207.47;5026824;27;20045;-59
2023/03/06 06:36:04;;;;;;;23.42;16.25;;;;;;;5.21;62.19;99201.06;5017282;28;20049;-58
2023/03/06 06:38:31;;;;;;;23.23;17.27;;;;;;;5.28;62.08;99201.44;5030042;28;20042;-59
2023/03/06 06:41:00;;;;;;;20.75;15.65;;;;;;;5.36;62.43;99199.91;5029550;28;20060;-59
2023/03/06 06:43:29;;;;;;;25.50;17.35;;;;;;;5.32;61.97;99204.41;5027639;28;20166;-58
2023/03/06 06:45:58;;;;;;;25.13;18.35;;;;;;;5.34;62.24;99205.72;5026176;28;20404;-59
2023/03/06 06:48:25;;;;;;;24.17;17.60;;;;;;;5.48;62.03;99195.47;5030551;28;20057;-59
2023/03/06 06:50:55;;;;;;;24.63;17.17;;;;;;;5.53;61.86;99191.75;5028656;28;20454;-59
2023/03/06 06:53:23;;;;;;;24.73;17.83;;;;;;;5.68;61.33;99198.84;5025547;28;20053;-59
2023/03/06 06:55:50;;;;;;;22.48;17.08;;;;;;;5.67;61.19;99189.75;5011043;28;20050;-59
2023/03/06 06:58:18;;;;;;;23.25;16.90;;;;;;;5.70;60.99;99202.94;5022980;28;20060;-59
2023/03/06 07:00:46;;;;;;;21.38;16.42;;;;;;;5.79;61.36;99191.13;5026523;28;20315;-59
2023/03/06 07:03:14;;;;;;;21.88;16.50;;;;;;;5.75;60.84;99203.94;5028695;28;20045;-59
2023/03/06 07:05:41;;;;;;;24.15;17.40;;;;;;;5.80;61.01;99203.81;5028691;28;20057;-60
2023/03/06 07:08:09;;;;;;;24.38;16.80;;;;;;;5.78;60.37;99189.50;5021871;28;20411;-62
2023/03/06 07:10:38;;;;;;;24.20;17.15;;;;;;;5.65;60.22;99185.69;5024292;28;20419;-59
2023/03/06 07:13:06;;;;;;;22.98;16.48;;;;;;;5.74;60.74;99202.31;5029274;28;20411;-60
2023/03/06 07:15:33;;;;;;;23.30;18.02;;;;;;;5.78;60.43;99195.03;5024807;27;20060;-60
2023/03/06 07:18:01;;;;;;;23.08;17.58;;;;;;;5.85;60.51;99192.63;5027035;28;20505;-60
2023/03/06 07:20:30;;;;;;;23.77;17.45;;;;;;;5.90;60.99;99195.28;5028159;28;20057;-60
2023/03/06 07:22:58;;;;;;;25.13;18.30;;;;;;;5.93;60.78;99191.88;5026750;28;20049;-60
2023/03/06 07:25:25;;;;;;;24.33;17.30;;;;;;;5.97;60.08;99201.22;5027676;27;20057;-59
2023/03/06 07:27:52;;;;;;;22.20;16.45;;;;;;;5.90;60.51;99196.09;5030639;28;20072;-60
2023/03/06 07:30:20;;;;;;;22.05;15.88;;;;;;;5.96;60.15;99201.50;5030031;28;20057;-59
2023/03/06 07:32:47;;;;;;;26.02;19.25;;;;;;;5.78;60.18;99206.09;5029410;28;20045;-59
2023/03/06 07:35:19;;;;;;;26.33;19.13;;;;;;;5.80;60.31;99206.59;5030601;28;20057;-60
2023/03/06 07:37:46;;;;;;;27.77;17.88;;;;;;;5.94;59.98;99204.56;5028422;28;20053;-59
2023/03/06 07:40:14;;;;;;;23.65;17.40;;;;;;;6.04;59.89;99206.28;5027928;28;20069;-60
2023/03/06 07:42:44;;;;;;;22.88;17.40;;;;;;;6.09;59.79;99209.75;5029071;28;20050;-58
2023/03/06 07:45:12;;;;;;;24.38;17.05;;;;;;;5.99;59.74;99210.00;5028868;28;20057;-60
2023/03/06 07:47:39;;;;;;;22.02;16.35;;;;;;;6.09;59.56;99206.16;5029754;28;20050;-57
2023/03/06 07:50:07;;;;;;;22.27;16.77;;;;;;;6.16;59.43;99208.47;5040569;27;20057;-58
2023/03/06 07:52:36;;;;;;;22.20;15.98;;;;;;;6.18;59.17;99208.97;5046639;27;20053;-58
2023/03/06 07:55:05;;;;;;;20.55;15.40;;;;;;;6.15;59.11;99217.91;5027617;28;20060;-58
2023/03/06 07:57:33;;;;;;;23.60;16.30;;;;;;;6.05;59.36;99211.50;5027142;28;20635;-58
2023/03/06 08:00:00;;;;;;;22.23;16.25;;;;;;;6.08;59.61;99207.28;5024607;28;20049;-58
2023/03/06 08:02:27;;;;;;;21.27;15.43;;;;;;;6.11;59.42;99203.91;5026129;28;20054;-58
2023/03/06 08:04:55;;;;;;;21.23;15.02;;;;;;;6.19;59.31;99208.66;5024528;28;20049;-59
2023/03/06 08:07:23;;;;;;;22.73;15.65;;;;;;;6.14;59.52;99205.22;5026253;28;20057;-59
2023/03/06 08:09:51;;;;;;;21.83;15.60;;;;;;;6.15;59.10;99212.38;5021651;28;20491;-58
2023/03/06 08:12:18;;;;;;;21.90;14.70;;;;;;;6.27;58.69;99210.66;5023326;28;20049;-59
2023/03/06 08:14:46;;;;;;;21.73;15.20;;;;;;;6.33;58.21;99210.53;5022974;28;20056;-58
2023/03/06 08:17:13;;;;;;;24.00;15.63;;;;;;;6.44;58.23;99211.88;5024628;28;20058;-60
2023/03/06 08:19:40;;;;;;;24.52;16.13;;;;;;;6.42;58.52;99216.91;5012288;28;21060;-61
2023/03/06 08:22:09;;;;;;;25.95;16.45;;;;;;;6.44;58.68;99215.44;5021578;28;20046;-58
2023/03/06 08:24:37;;;;;;;23.85;15.90;;;;;;;6.55;57.66;99206.88;5017224;28;20172;-60
2023/03/06 08:27:05;;;;;;;24.67;16.60;;;;;;;6.47;57.52;99200.19;5022419;28;20057;-60
2023/03/06 08:29:33;;;;;;;25.92;16.38;;;;;;;6.79;57.54;99198.19;5018121;28;20846;-60
2023/03/06 08:32:00;;;;;;;25.90;17.15;;;;;;;6.86;57.30;99212.38;5022637;28;20058;-61
2023/03/06 08:34:27;;;;;;;25.35;16.33;;;;;;;6.82;56.97;99203.06;5020677;28;20056;-60
2023/03/06 08:36:54;;;;;;;25.27;16.88;;;;;;;6.61;57.03;99202.84;5018207;28;20095;-60
2023/03/06 08:39:22;;;;;;;25.73;17.58;;;;;;;6.65;57.30;99203.84;5022008;28;20054;-60
2023/03/06 08:41:49;;;;;;;24.42;16.55;;;;;;;6.74;56.82;99203.88;5018757;28;20076;-60
2023/03/06 08:44:21;;;;;;;26.63;17.38;;;;;;;7.03;56.78;99206.06;5017682;28;20046;-60
2023/03/06 08:46:48;;;;;;;22.92;16.17;;;;;;;7.12;56.64;99204.16;5014035;28;20065;-60
2023/03/06 08:49:16;;;;;;;23.50;16.38;;;;;;;7.10;56.94;99204.47;5015941;28;20057;-60
2023/03/06 08:51:43;;;;;;;24.75;17.00;;;;;;;6.98;55.83;99203.47;5020759;28;20053;-60
2023/03/06 08:54:12;;;;;;;24.33;16.38;;;;;;;6.99;56.60;99207.84;5018705;28;20064;-60
2023/03/06 08:56:39;;;;;;;23.77;16.27;;;;;;;6.95;56.78;99206.84;5020207;28;20418;-60
2023/03/06 08:59:09;;;;;;;23.65;16.20;;;;;;;7.08;56.35;99205.94;5020119;28;20506;-60
2023/03/06 09:01:38;;;;;;;23.27;17.38;;;;;;;7.07;56.34;99205.09;5019368;28;20054;-60
2023/03/06 09:04:07;;;;;;;22.73;15.48;;;;;;;7.08;56.41;99205.94;5021527;28;20046;-60
2023/03/06 09:06:36;;;;;;;;;;;;;;;7.03;56.25;99206.06;5018923;28;20054;-60
2023/03/06 09:09:03;;;;;;;23.50;17.17;;;;;;;6.99;55.82;99203.16;5023189;28;19927;-60
2023/03/06 09:11:32;;;;;;;20.98;16.15;;;;;;;7.10;56.20;99206.44;5019480;28;20062;-60
2023/03/06 09:13:59;;;;;;;22.45;16.00;;;;;;;7.17;56.08;99204.00;5017283;28;20628;-60
2023/03/06 09:16:27;;;;;;;22.00;14.88;;;;;;;7.26;55.22;99207.56;5019683;28;20514;-60
2023/03/06 09:18:57;;;;;;;22.55;15.02;;;;;;;7.31;55.45;99209.41;5022795;28;20072;-60
2023/03/06 09:21:26;;;;;;;;;;;;;;;7.22;55.67;99206.59;5023564;28;20057;-60
2023/03/06 09:23:53;;;;;;;25.00;17.77;;;;;;;7.00;57.13;99190.13;5021107;28;19929;-60
2023/03/06 09:26:21;;;;;;;22.27;14.95;;;;;;;6.75;56.87;99200.78;5021948;27;20057;-60
2023/03/06 09:28:48;;;;;;;21.45;13.40;;;;;;;6.88;56.99;99204.56;5023473;28;20419;-60
2023/03/06 09:31:18;;;;;;;17.67;13.13;;;;;;;7.28;57.63;99205.31;5022287;28;20057;-59
2023/03/06 09:33:47;;;;;;;18.40;12.90;;;;;;;7.23;56.49;99201.88;5023889;28;20053;-61
2023/03/06 09:36:17;;;;;;;17.00;11.75;;;;;;;7.19;57.63;99203.66;5019630;28;20056;-60
2023/03/06 09:38:44;;;;;;;;;;;;;;;7.30;57.14;99205.78;5022717;27;20064;-61
2023/03/06 09:41:25;;;;;;;18.98;12.23;;;;;;;7.40;57.67;99201.09;5023763;28;19925;-60
2023/03/06 09:43:55;;;;;;;17.30;12.38;;;;;;;7.13;58.28;99202.19;5024017;28;20353;-60
2023/03/06 09:46:31;;;;;;;15.43;11.95;;;;;;;7.30;58.47;99202.22;5023968;27;20431;-60
2023/03/06 09:49:11;;;;;;;18.80;12.57;;;;;;;7.21;58.75;99204.97;5023039;28;20396;-60
2023/03/06 09:51:57;;;;;;;15.70;11.18;;;;;;;7.01;58.66;99200.03;5019232;28;20061;-60
2023/03/06 09:54:34;;;;;;;17.70;12.15;;;;;;;6.81;60.29;99204.22;5022277;27;20053;-61
2023/03/06 09:57:02;;;;;;;17.08;11.68;;;;;;;6.76;60.56;99205.19;5022439;28;20049;-61
2023/03/06 09:59:31;;;;;;;19.45;12.98;;;;;;;6.80;60.86;99203.38;5022610;28;20054;-61
2023/03/06 10:02:12;;;;;;;14.23;11.20;;;;;;;7.05;60.32;99206.56;5023423;28;20056;-61
2023/03/06 10:04:41;;;;;;;18.67;12.13;;;;;;;7.04;60.66;99202.19;5019741;28;20045;-61
2023/03/06 10:07:18;;;;;;;17.10;11.93;;;;;;;7.17;60.52;99197.63;5021097;28;20080;-61
2023/03/06 10:09:52;;;;;;;14.60;11.50;;;;;;;7.23;60.42;99202.69;5019064;28;20056;-61
2023/03/06 10:12:24;;;;;;;18.85;11.43;;;;;;;7.26;60.40;99209.53;5019864;28;20057;-61
2023/03/06 10:15:11;;;;;;;15.82;10.55;;;;;;;7.25;59.88;99196.84;5019830;28;20080;-61
2023/03/06 10:17:41;;;;;;;14.23;11.07;;;;;;;7.22;59.90;99201.06;5020222;28;20061;-61
2023/03/06 10:20:16;;;;;;;17.33;11.65;;;;;;;7.24;59.88;99201.53;5022362;28;20129;-61
2023/03/06 10:22:48;;;;;;;17.98;12.15;;;;;;;7.26;60.11;99206.78;5018898;28;20057;-61
2023/03/06 10:25:27;;;;;;;16.85;12.50;;;;;;;7.25;60.59;99199.63;5019955;28;20054;-61
2023/03/06 10:27:58;;;;;;;16.70;12.15;;;;;;;7.26;60.32;99204.81;5023171;28;20472;-61
2023/03/06 10:30:37;;;;;;;19.75;12.98;;;;;;;7.12;59.75;99204.16;5026242;28;20072;-61
2023/03/06 10:33:09;;;;;;;18.08;12.18;;;;;;;7.13;59.86;99211.31;5023016;27;20391;-61
2023/03/06 10:35:46;;;;;;;20.38;13.38;;;;;;;7.16;59.90;99201.53;5019888;28;20072;-61
2023/03/06 10:38:19;;;;;;;16.77;12.10;;;;;;;7.19;59.85;99212.78;5017885;28;20053;-61
2023/03/06 10:40:56;;;;;;;17.35;12.50;;;;;;;7.18;58.89;99211.19;5019754;28;20152;-61
2023/03/06 10:43:24;;;;;;;18.85;12.95;;;;;;;7.14;58.90;99204.66;5018441;28;20053;-61
2023/03/06 10:45:53;;;;;;;17.55;12.43;;;;;;;7.14;58.91;99210.19;5018855;28;21016;-61
2023/03/06 10:48:22;;;;;;;20.58;12.88;;;;;;;7.15;58.98;99208.22;5022736;28;20060;-61
2023/03/06 10:50:51;;;;;;;19.45;14.25;;;;;;;7.07;59.25;99204.28;5021105;28;20061;-61
2023/03/06 10:53:25;;;;;;;19.33;14.43;;;;;;;7.06;58.91;99202.66;5018823;28;21552;-61
2023/03/06 10:55:55;;;;;;;19.13;13.02;;;;;;;7.09;59.39;99216.66;5021749;28;20401;-61
2023/03/06 10:58:26;;;;;;;17.80;13.32;;;;;;;7.11;58.71;99206.09;5021481;27;20058;-61
2023/03/06 11:01:07;;;;;;;19.52;14.13;;;;;;;7.14;58.80;99212.97;5021734;27;20057;-61
2023/03/06 11:03:35;;;;;;;21.17;13.93;;;;;;;7.13;58.93;99214.06;5019387;28;20056;-61
2023/03/06 11:06:10;;;;;;;17.48;12.73;;;;;;;7.22;57.80;99217.66;5022702;28;20062;-61
2023/03/06 11:08:39;;;;;;;17.52;13.38;;;;;;;7.29;57.38;99215.25;5021848;28;20060;-61
2023/03/06 11:11:08;;;;;;;18.38;14.10;;;;;;;7.42;57.18;99213.47;5021869;27;20056;-61
2023/03/06 11:13:38;;;;;;;19.03;13.63;;;;;;;7.55;56.52;99211.69;5023112;28;20050;-61
2023/03/06 11:16:15;;;;;;;19.48;14.55;;;;;;;7.30;56.26;99218.84;5021339;28;20512;-61
2023/03/06 11:18:54;;;;;;;20.20;14.80;;;;;;;7.68;56.57;99205.16;5021881;28;20384;-61
2023/03/06 11:21:26;;;;;;;21.73;15.77;;;;;;;7.97;55.96;99209.22;5020679;28;20538;-61
2023/03/06 11:24:00;;;;;;;19.92;15.80;;;;;;;8.73;53.85;99207.75;5020849;28;20496;-57
2023/03/06 11:26:40;;;;;;;19.75;15.88;;;;;;;9.22;52.90;99205.38;5019174;28;20057;-58
2023/03/06 11:29:30;;;;;;;20.85;16.77;;;;;;;9.76;51.79;99199.06;5020364;28;20045;-58
2023/03/06 11:32:04;;;;;;;20.88;17.23;;;;;;;11.89;46.10;99197.38;5017171;27;20526;-58
2023/03/06 11:34:41;;;;;;;19.88;16.15;;;;;;;12.44;46.06;99191.31;5019087;28;20054;-58
2023/03/06 11:37:16;;;;;;;16.77;13.82;;;;;;;17.30;38.20;99177.44;5019521;28;20061;-58